Calgary Springbank Airport
CYBW : now visible

Airfield :











YOU CAN JOIN US ON...

 
LOGIN :

Register | Disclaimer

   EN    FR    IT 

 









Legend :    VFR   Marginal VFR   IFR   Intensive IFR   Very Intensive IFR
Visi :
Ceiling :
>= 8 km
>= 3000ft
5 to 8 km
1000 to 3000 ft
1500m to 5 km
500 to 1000 ft
800 to 1500m
200 to 500 ft
< 800m
< 200 ft
Symbols :   Thunderstorms  Fog  Heavy snow  Heavy precipitations  Wind > 20 kt






- Airport Elevation : 3937 ft
- IATA code : YBW


CYBW - Calgary Springbank

CURRENT METAR :
  • 260300Z AUTO 28005KT 9SM BKN090 OVC110 13/06 A2983 RMK SLP109 DENSITY ALT 4700FT

EXPIRED METARs :
  • 260200Z AUTO 30006KT 9SM FEW075 OVC100 13/06 A2984 RMK SLP115 DENSITY ALT 4700FT
  • 260116Z AUTO 30006KT 9SM BKN065 OVC081 14/05 A2984 RMK SLP120 DENSITY ALT 4800FT
  • 260052Z AUTO 28012G17KT 9SM FEW055 BKN072 OVC087 14/04 A2984 RMK SLP121 DENSITY ALT 4800FT
  • 260025Z AUTO 24010G15KT 9SM -RA OVC065 14/05 A2985 RMK WSHFT AT 0012Z SLP125 DENSITY ALT 4700FT

TAF AMD TAF CYBW
Valid from the 26 at 00:00 until the 26 at 04:00 UTC


252346Z 2600/2604 30010KT P6SM BKN090
TEMPO 2600/2604 P6SM -SHRA OVC070 RMK FCST BASED ON AUTO OBS. NXT FCST WILL BE ISSUED AT 261145Z
CZEG FIR / North America



MET'MAP, your aeronautical weather chart ! - Copyright ORBIFLY December 2007 - Disclaimer

ORBIFLY MET'MAP TEAM :

Programming & Development : Alexandra Zaïnal
Concept & original design : Baudouin d'Aumeries
Assistance for programming : Marc-Olivier Méhu
Technical & hardware support : Manuel Goepfert

Contact : metmap@orbifly.com




SOURCES & CREDITS :

   NOAA       Earth
Advisory